BAA weather

Bialla Airport
Bialla, Matalilu, Ewase, West New Britain, Papua New Guinea

Public forecast

Using degrees Celsius for public forecast. Weather courtesy of forecast.io.

Closest aviation weather report (METAR) to Bialla Airport

Report is more than 6 hours old.

Closest report is Nadzab Airport, 266.3 nm (493.2 km) WSW. Retrieved 2020/07/10 07:00 UTC (8 hours ago):

AYNZ 100700Z 09005KT 9999 SCT025 OVC050 25/23 Q1009

Closest aviation forecast (TAF) to Bialla Airport

Forecast is more than 12 hours old.

Closest forecast is Nadzab Airport, 266.3 nm (493.2 km) WSW. Retrieved 2015/08/19 08:00 UTC (5 years ago):

TAF AYPY 190500Z 1908/1920 TAF (3) AYNZ 190550Z 1908/1920 09015KT 9999 SCT020 SCT120 FM191400 VRB03KT 9999 BKN040 Q 1011 1014 1013 1010 TAF (3) AYMD 190551Z 1908/1920 VRB03KT 9999 FEW020 Q 1010 1012 1011 1009 TAF (3) AYWK 190552Z 1908/1920 09010KT 9999 FEW020 SCT140 Q 1010 1012 1011 1009 TAF (3) AYMO 190553Z 1908/1920 17012KT 9999 SCT018 Q 1010 1012 1011 1009